sensor_id;sensor_type;location;lat;lon;timestamp;P1;durP1;ratioP1;P2;durP2;ratioP2
44137;SDS011;29800;55.942;37.314;2024-03-08T00:00:59;15.43;;;7.95;;
44137;SDS011;29800;55.942;37.314;2024-03-08T00:03:25;22.00;;;9.30;;
44137;SDS011;29800;55.942;37.314;2024-03-08T00:05:52;19.15;;;9.68;;
44137;SDS011;29800;55.942;37.314;2024-03-08T00:08:18;16.88;;;7.80;;
44137;SDS011;29800;55.942;37.314;2024-03-08T00:10:45;15.80;;;7.47;;
44137;SDS011;29800;55.942;37.314;2024-03-08T00:13:11;14.65;;;7.05;;
44137;SDS011;29800;55.942;37.314;2024-03-08T00:15:37;13.15;;;6.00;;
44137;SDS011;29800;55.942;37.314;2024-03-08T00:18:03;11.13;;;5.60;;
44137;SDS011;29800;55.942;37.314;2024-03-08T00:20:30;11.90;;;5.55;;
44137;SDS011;29800;55.942;37.314;2024-03-08T00:22:56;8.75;;;4.80;;
44137;SDS011;29800;55.942;37.314;2024-03-08T00:25:23;11.15;;;4.55;;
44137;SDS011;29800;55.942;37.314;2024-03-08T00:27:50;11.27;;;4.35;;
44137;SDS011;29800;55.942;37.314;2024-03-08T00:30:16;9.50;;;4.55;;
44137;SDS011;29800;55.942;37.314;2024-03-08T00:32:43;10.02;;;4.28;;
44137;SDS011;29800;55.942;37.314;2024-03-08T00:35:09;14.07;;;4.22;;
44137;SDS011;29800;55.942;37.314;2024-03-08T00:37:35;10.18;;;3.83;;
44137;SDS011;29800;55.942;37.314;2024-03-08T00:40:01;13.60;;;5.80;;
44137;SDS011;29800;55.942;37.314;2024-03-08T00:42:29;10.63;;;5.20;;
44137;SDS011;29800;55.942;37.314;2024-03-08T00:44:55;18.27;;;9.63;;
44137;SDS011;29800;55.942;37.314;2024-03-08T00:47:23;11.52;;;5.35;;
44137;SDS011;29800;55.942;37.314;2024-03-08T00:49:49;13.48;;;6.68;;
44137;SDS011;29800;55.942;37.314;2024-03-08T00:52:16;8.52;;;5.10;;
44137;SDS011;29800;55.942;37.314;2024-03-08T00:54:44;10.77;;;4.32;;
44137;SDS011;29800;55.942;37.314;2024-03-08T00:57:10;7.10;;;3.65;;
44137;SDS011;29800;55.942;37.314;2024-03-08T00:59:40;6.68;;;3.65;;
44137;SDS011;29800;55.942;37.314;2024-03-08T01:02:06;7.18;;;4.40;;
44137;SDS011;29800;55.942;37.314;2024-03-08T01:04:34;6.03;;;3.33;;
44137;SDS011;29800;55.942;37.314;2024-03-08T01:07:00;8.60;;;3.45;;
44137;SDS011;29800;55.942;37.314;2024-03-08T01:09:27;7.43;;;3.00;;
44137;SDS011;29800;55.942;37.314;2024-03-08T01:11:54;7.90;;;3.15;;
44137;SDS011;29800;55.942;37.314;2024-03-08T01:14:21;7.00;;;3.70;;
44137;SDS011;29800;55.942;37.314;2024-03-08T01:16:48;8.75;;;4.30;;
44137;SDS011;29800;55.942;37.314;2024-03-08T01:19:15;8.63;;;4.45;;
44137;SDS011;29800;55.942;37.314;2024-03-08T01:21:41;7.22;;;3.88;;
44137;SDS011;29800;55.942;37.314;2024-03-08T01:24:08;7.68;;;3.47;;
44137;SDS011;29800;55.942;37.314;2024-03-08T01:26:34;8.23;;;3.40;;
44137;SDS011;29800;55.942;37.314;2024-03-08T01:29:01;7.72;;;2.80;;
44137;SDS011;29800;55.942;37.314;2024-03-08T01:31:30;7.88;;;3.22;;
44137;SDS011;29800;55.942;37.314;2024-03-08T01:33:57;11.45;;;4.00;;
44137;SDS011;29800;55.942;37.314;2024-03-08T01:36:24;7.45;;;3.38;;
44137;SDS011;29800;55.942;37.314;2024-03-08T01:38:51;8.32;;;3.85;;
44137;SDS011;29800;55.942;37.314;2024-03-08T01:41:18;8.40;;;3.58;;
44137;SDS011;29800;55.942;37.314;2024-03-08T01:43:45;8.50;;;2.78;;
44137;SDS011;29800;55.942;37.314;2024-03-08T01:46:13;7.93;;;2.63;;
44137;SDS011;29800;55.942;37.314;2024-03-08T01:48:41;6.28;;;2.75;;
44137;SDS011;29800;55.942;37.314;2024-03-08T01:51:09;6.35;;;2.70;;
44137;SDS011;29800;55.942;37.314;2024-03-08T01:53:37;5.78;;;3.13;;
44137;SDS011;29800;55.942;37.314;2024-03-08T01:56:04;5.75;;;2.60;;
44137;SDS011;29800;55.942;37.314;2024-03-08T01:58:31;6.70;;;3.15;;
44137;SDS011;29800;55.942;37.314;2024-03-08T02:00:59;9.27;;;2.95;;
44137;SDS011;29800;55.942;37.314;2024-03-08T02:03:26;11.50;;;3.03;;
44137;SDS011;29800;55.942;37.314;2024-03-08T02:05:52;6.97;;;3.03;;
44137;SDS011;29800;55.942;37.314;2024-03-08T02:08:18;6.03;;;2.70;;
44137;SDS011;29800;55.942;37.314;2024-03-08T02:10:48;7.15;;;3.38;;
44137;SDS011;29800;55.942;37.314;2024-03-08T02:13:16;5.80;;;3.25;;
44137;SDS011;29800;55.942;37.314;2024-03-08T02:18:38;7.50;;;3.40;;
44137;SDS011;29800;55.942;37.314;2024-03-08T02:21:05;6.38;;;3.00;;
44137;SDS011;29800;55.942;37.314;2024-03-08T02:23:33;6.63;;;3.58;;
44137;SDS011;29800;55.942;37.314;2024-03-08T02:26:00;6.57;;;3.53;;
44137;SDS011;29800;55.942;37.314;2024-03-08T02:28:27;8.20;;;3.63;;
44137;SDS011;29800;55.942;37.314;2024-03-08T02:30:54;9.73;;;3.88;;
44137;SDS011;29800;55.942;37.314;2024-03-08T02:33:24;7.70;;;3.95;;
44137;SDS011;29800;55.942;37.314;2024-03-08T02:35:51;9.68;;;4.20;;
44137;SDS011;29800;55.942;37.314;2024-03-08T02:38:19;7.85;;;3.90;;
44137;SDS011;29800;55.942;37.314;2024-03-08T02:40:47;8.85;;;3.90;;
44137;SDS011;29800;55.942;37.314;2024-03-08T02:43:16;9.88;;;4.72;;
44137;SDS011;29800;55.942;37.314;2024-03-08T02:45:44;7.50;;;4.07;;
44137;SDS011;29800;55.942;37.314;2024-03-08T02:48:12;8.40;;;4.15;;
44137;SDS011;29800;55.942;37.314;2024-03-08T02:50:39;8.52;;;4.03;;
44137;SDS011;29800;55.942;37.314;2024-03-08T02:53:06;8.63;;;4.20;;
44137;SDS011;29800;55.942;37.314;2024-03-08T02:55:33;8.75;;;4.18;;
44137;SDS011;29800;55.942;37.314;2024-03-08T02:58:03;7.22;;;3.58;;
44137;SDS011;29800;55.942;37.314;2024-03-08T03:00:30;8.90;;;4.05;;
44137;SDS011;29800;55.942;37.314;2024-03-08T03:02:57;8.32;;;3.83;;
44137;SDS011;29800;55.942;37.314;2024-03-08T03:05:23;7.68;;;3.92;;
44137;SDS011;29800;55.942;37.314;2024-03-08T03:07:51;7.45;;;4.10;;
44137;SDS011;29800;55.942;37.314;2024-03-08T03:10:17;7.00;;;4.38;;
44137;SDS011;29800;55.942;37.314;2024-03-08T03:12:44;10.32;;;4.90;;
44137;SDS011;29800;55.942;37.314;2024-03-08T03:15:17;10.15;;;4.78;;
44137;SDS011;29800;55.942;37.314;2024-03-08T03:17:47;8.13;;;4.40;;
44137;SDS011;29800;55.942;37.314;2024-03-08T03:20:14;9.05;;;4.60;;
44137;SDS011;29800;55.942;37.314;2024-03-08T03:22:48;9.68;;;4.30;;
44137;SDS011;29800;55.942;37.314;2024-03-08T03:25:21;8.50;;;4.43;;
44137;SDS011;29800;55.942;37.314;2024-03-08T03:27:51;8.60;;;4.50;;
44137;SDS011;29800;55.942;37.314;2024-03-08T03:30:22;7.03;;;4.18;;
44137;SDS011;29800;55.942;37.314;2024-03-08T03:32:52;9.15;;;4.22;;
44137;SDS011;29800;55.942;37.314;2024-03-08T03:35:21;7.75;;;4.53;;
44137;SDS011;29800;55.942;37.314;2024-03-08T03:37:49;6.82;;;3.67;;
44137;SDS011;29800;55.942;37.314;2024-03-08T03:40:31;9.00;;;4.78;;
44137;SDS011;29800;55.942;37.314;2024-03-08T03:43:02;8.75;;;4.50;;
44137;SDS011;29800;55.942;37.314;2024-03-08T03:45:28;11.02;;;4.88;;
44137;SDS011;29800;55.942;37.314;2024-03-08T03:47:55;9.15;;;5.18;;
44137;SDS011;29800;55.942;37.314;2024-03-08T03:50:21;8.20;;;4.20;;
44137;SDS011;29800;55.942;37.314;2024-03-08T03:52:49;10.88;;;5.00;;
44137;SDS011;29800;55.942;37.314;2024-03-08T03:55:15;13.80;;;5.05;;
44137;SDS011;29800;55.942;37.314;2024-03-08T03:57:42;8.80;;;4.93;;
44137;SDS011;29800;55.942;37.314;2024-03-08T04:00:09;10.90;;;5.40;;
44137;SDS011;29800;55.942;37.314;2024-03-08T04:02:41;8.88;;;4.45;;
44137;SDS011;29800;55.942;37.314;2024-03-08T04:05:09;8.75;;;4.75;;
44137;SDS011;29800;55.942;37.314;2024-03-08T04:07:36;8.90;;;4.60;;
44137;SDS011;29800;55.942;37.314;2024-03-08T04:10:04;8.20;;;4.07;;
44137;SDS011;29800;55.942;37.314;2024-03-08T04:12:35;12.30;;;4.68;;
44137;SDS011;29800;55.942;37.314;2024-03-08T04:15:01;8.23;;;4.68;;
44137;SDS011;29800;55.942;37.314;2024-03-08T04:17:32;9.32;;;4.50;;
44137;SDS011;29800;55.942;37.314;2024-03-08T04:20:03;8.57;;;4.40;;
44137;SDS011;29800;55.942;37.314;2024-03-08T04:22:36;9.98;;;4.40;;
44137;SDS011;29800;55.942;37.314;2024-03-08T04:25:03;9.45;;;4.40;;
44137;SDS011;29800;55.942;37.314;2024-03-08T04:27:31;8.93;;;4.22;;
44137;SDS011;29800;55.942;37.314;2024-03-08T04:30:01;9.80;;;4.57;;
44137;SDS011;29800;55.942;37.314;2024-03-08T04:32:31;9.23;;;4.40;;
44137;SDS011;29800;55.942;37.314;2024-03-08T04:34:58;11.27;;;4.88;;
44137;SDS011;29800;55.942;37.314;2024-03-08T04:37:24;9.23;;;4.20;;
44137;SDS011;29800;55.942;37.314;2024-03-08T04:39:50;10.10;;;4.15;;
44137;SDS011;29800;55.942;37.314;2024-03-08T04:42:16;12.15;;;4.68;;
44137;SDS011;29800;55.942;37.314;2024-03-08T04:44:44;10.07;;;4.63;;
44137;SDS011;29800;55.942;37.314;2024-03-08T04:47:10;9.70;;;4.88;;
44137;SDS011;29800;55.942;37.314;2024-03-08T04:49:36;8.00;;;4.00;;
44137;SDS011;29800;55.942;37.314;2024-03-08T04:52:03;7.72;;;3.65;;
44137;SDS011;29800;55.942;37.314;2024-03-08T04:54:30;9.18;;;4.60;;
44137;SDS011;29800;55.942;37.314;2024-03-08T04:56:57;7.15;;;3.20;;
44137;SDS011;29800;55.942;37.314;2024-03-08T04:59:23;10.60;;;4.00;;
44137;SDS011;29800;55.942;37.314;2024-03-08T05:01:49;7.80;;;3.72;;
44137;SDS011;29800;55.942;37.314;2024-03-08T05:04:17;8.38;;;4.43;;
44137;SDS011;29800;55.942;37.314;2024-03-08T05:06:43;10.45;;;4.50;;
44137;SDS011;29800;55.942;37.314;2024-03-08T05:09:09;8.10;;;3.78;;
44137;SDS011;29800;55.942;37.314;2024-03-08T05:11:42;9.57;;;4.07;;
44137;SDS011;29800;55.942;37.314;2024-03-08T05:14:12;8.57;;;4.20;;
44137;SDS011;29800;55.942;37.314;2024-03-08T05:16:45;9.25;;;4.30;;
44137;SDS011;29800;55.942;37.314;2024-03-08T05:19:15;9.55;;;4.45;;
44137;SDS011;29800;55.942;37.314;2024-03-08T05:21:45;9.40;;;4.90;;
44137;SDS011;29800;55.942;37.314;2024-03-08T05:24:15;9.35;;;4.78;;
44137;SDS011;29800;55.942;37.314;2024-03-08T05:26:42;7.95;;;4.45;;
44137;SDS011;29800;55.942;37.314;2024-03-08T05:29:08;10.38;;;4.70;;
44137;SDS011;29800;55.942;37.314;2024-03-08T05:31:48;14.10;;;4.65;;
44137;SDS011;29800;55.942;37.314;2024-03-08T05:34:16;7.95;;;4.40;;
44137;SDS011;29800;55.942;37.314;2024-03-08T05:36:43;7.70;;;4.18;;
44137;SDS011;29800;55.942;37.314;2024-03-08T05:39:10;8.80;;;4.38;;
44137;SDS011;29800;55.942;37.314;2024-03-08T05:41:38;9.88;;;4.55;;
44137;SDS011;29800;55.942;37.314;2024-03-08T05:44:06;8.18;;;4.53;;
44137;SDS011;29800;55.942;37.314;2024-03-08T05:46:32;12.30;;;4.65;;
44137;SDS011;29800;55.942;37.314;2024-03-08T05:48:58;11.63;;;5.13;;
44137;SDS011;29800;55.942;37.314;2024-03-08T05:51:25;8.27;;;4.90;;
44137;SDS011;29800;55.942;37.314;2024-03-08T05:53:54;9.55;;;4.80;;
44137;SDS011;29800;55.942;37.314;2024-03-08T05:56:21;9.02;;;4.60;;
44137;SDS011;29800;55.942;37.314;2024-03-08T05:58:48;8.30;;;4.53;;
44137;SDS011;29800;55.942;37.314;2024-03-08T06:01:15;8.38;;;4.43;;
44137;SDS011;29800;55.942;37.314;2024-03-08T06:03:41;11.13;;;5.28;;
44137;SDS011;29800;55.942;37.314;2024-03-08T06:06:14;8.43;;;4.32;;
44137;SDS011;29800;55.942;37.314;2024-03-08T06:08:41;7.85;;;4.22;;
44137;SDS011;29800;55.942;37.314;2024-03-08T06:11:09;10.05;;;4.63;;
44137;SDS011;29800;55.942;37.314;2024-03-08T06:13:35;8.95;;;4.43;;
44137;SDS011;29800;55.942;37.314;2024-03-08T06:16:01;7.95;;;4.15;;
44137;SDS011;29800;55.942;37.314;2024-03-08T06:18:30;9.77;;;4.90;;
44137;SDS011;29800;55.942;37.314;2024-03-08T06:20:57;8.18;;;4.55;;
44137;SDS011;29800;55.942;37.314;2024-03-08T06:23:23;6.85;;;4.10;;
44137;SDS011;29800;55.942;37.314;2024-03-08T06:25:49;8.10;;;4.47;;
44137;SDS011;29800;55.942;37.314;2024-03-08T06:28:15;10.43;;;5.20;;
44137;SDS011;29800;55.942;37.314;2024-03-08T06:30:42;8.13;;;4.65;;
44137;SDS011;29800;55.942;37.314;2024-03-08T06:33:08;9.15;;;4.25;;
44137;SDS011;29800;55.942;37.314;2024-03-08T06:35:36;8.07;;;4.28;;
44137;SDS011;29800;55.942;37.314;2024-03-08T06:38:03;11.93;;;4.50;;
44137;SDS011;29800;55.942;37.314;2024-03-08T06:40:30;9.52;;;4.57;;
44137;SDS011;29800;55.942;37.314;2024-03-08T06:42:56;8.70;;;4.50;;
44137;SDS011;29800;55.942;37.314;2024-03-08T06:45:22;11.27;;;4.85;;
44137;SDS011;29800;55.942;37.314;2024-03-08T06:47:49;7.60;;;4.25;;
44137;SDS011;29800;55.942;37.314;2024-03-08T06:50:15;11.80;;;5.18;;
44137;SDS011;29800;55.942;37.314;2024-03-08T06:52:41;10.23;;;5.00;;
44137;SDS011;29800;55.942;37.314;2024-03-08T06:55:08;10.00;;;5.25;;
44137;SDS011;29800;55.942;37.314;2024-03-08T06:57:40;9.93;;;5.43;;
44137;SDS011;29800;55.942;37.314;2024-03-08T07:00:07;9.80;;;4.88;;
44137;SDS011;29800;55.942;37.314;2024-03-08T07:02:42;9.48;;;4.80;;
44137;SDS011;29800;55.942;37.314;2024-03-08T07:05:11;10.55;;;5.40;;
44137;SDS011;29800;55.942;37.314;2024-03-08T07:07:37;10.77;;;5.30;;
44137;SDS011;29800;55.942;37.314;2024-03-08T07:10:04;11.20;;;5.90;;
44137;SDS011;29800;55.942;37.314;2024-03-08T07:12:30;11.25;;;5.10;;
44137;SDS011;29800;55.942;37.314;2024-03-08T07:14:56;10.23;;;5.78;;
44137;SDS011;29800;55.942;37.314;2024-03-08T07:17:22;11.20;;;5.55;;
44137;SDS011;29800;55.942;37.314;2024-03-08T07:19:50;9.38;;;5.55;;
44137;SDS011;29800;55.942;37.314;2024-03-08T07:22:16;10.23;;;5.38;;
44137;SDS011;29800;55.942;37.314;2024-03-08T07:24:42;11.13;;;5.93;;
44137;SDS011;29800;55.942;37.314;2024-03-08T07:27:14;13.43;;;5.63;;
44137;SDS011;29800;55.942;37.314;2024-03-08T07:29:40;9.40;;;5.05;;
44137;SDS011;29800;55.942;37.314;2024-03-08T07:32:07;9.80;;;5.43;;
44137;SDS011;29800;55.942;37.314;2024-03-08T07:34:49;11.02;;;5.60;;
44137;SDS011;29800;55.942;37.314;2024-03-08T07:37:16;10.52;;;5.63;;
44137;SDS011;29800;55.942;37.314;2024-03-08T07:39:44;11.60;;;5.40;;
44137;SDS011;29800;55.942;37.314;2024-03-08T07:42:10;11.20;;;5.85;;
44137;SDS011;29800;55.942;37.314;2024-03-08T07:44:38;10.65;;;5.47;;
44137;SDS011;29800;55.942;37.314;2024-03-08T07:47:04;10.73;;;5.30;;
44137;SDS011;29800;55.942;37.314;2024-03-08T07:49:33;12.48;;;5.15;;
44137;SDS011;29800;55.942;37.314;2024-03-08T07:52:00;10.13;;;5.32;;
44137;SDS011;29800;55.942;37.314;2024-03-08T07:54:26;11.63;;;5.80;;
44137;SDS011;29800;55.942;37.314;2024-03-08T07:56:52;9.98;;;5.32;;
44137;SDS011;29800;55.942;37.314;2024-03-08T07:59:19;8.23;;;4.78;;
44137;SDS011;29800;55.942;37.314;2024-03-08T08:01:46;9.43;;;5.18;;
44137;SDS011;29800;55.942;37.314;2024-03-08T08:04:12;9.77;;;5.03;;
44137;SDS011;29800;55.942;37.314;2024-03-08T08:06:40;12.48;;;5.22;;
44137;SDS011;29800;55.942;37.314;2024-03-08T08:09:10;12.70;;;6.13;;
44137;SDS011;29800;55.942;37.314;2024-03-08T08:11:40;10.82;;;5.68;;
44137;SDS011;29800;55.942;37.314;2024-03-08T08:14:09;9.77;;;5.30;;
44137;SDS011;29800;55.942;37.314;2024-03-08T08:16:36;9.43;;;4.93;;
44137;SDS011;29800;55.942;37.314;2024-03-08T08:19:03;10.70;;;4.88;;
44137;SDS011;29800;55.942;37.314;2024-03-08T08:21:36;9.13;;;4.88;;
44137;SDS011;29800;55.942;37.314;2024-03-08T08:24:03;10.05;;;5.60;;
44137;SDS011;29800;55.942;37.314;2024-03-08T08:26:29;13.23;;;5.60;;
44137;SDS011;29800;55.942;37.314;2024-03-08T08:28:56;11.77;;;5.40;;
44137;SDS011;29800;55.942;37.314;2024-03-08T08:31:22;13.15;;;5.57;;
44137;SDS011;29800;55.942;37.314;2024-03-08T08:33:48;8.65;;;4.93;;
44137;SDS011;29800;55.942;37.314;2024-03-08T08:36:14;10.38;;;4.85;;
44137;SDS011;29800;55.942;37.314;2024-03-08T08:38:41;9.32;;;5.03;;
44137;SDS011;29800;55.942;37.314;2024-03-08T08:41:09;9.30;;;4.97;;
44137;SDS011;29800;55.942;37.314;2024-03-08T08:43:36;12.45;;;5.72;;
44137;SDS011;29800;55.942;37.314;2024-03-08T08:46:05;10.07;;;5.15;;
44137;SDS011;29800;55.942;37.314;2024-03-08T08:48:31;11.32;;;5.65;;
44137;SDS011;29800;55.942;37.314;2024-03-08T08:50:57;10.68;;;5.60;;
44137;SDS011;29800;55.942;37.314;2024-03-08T08:53:23;11.43;;;5.53;;
44137;SDS011;29800;55.942;37.314;2024-03-08T08:55:49;10.05;;;5.63;;
44137;SDS011;29800;55.942;37.314;2024-03-08T08:58:15;12.07;;;6.28;;
44137;SDS011;29800;55.942;37.314;2024-03-08T09:00:41;10.50;;;5.57;;
44137;SDS011;29800;55.942;37.314;2024-03-08T09:03:10;10.18;;;5.90;;
44137;SDS011;29800;55.942;37.314;2024-03-08T09:05:37;12.65;;;5.68;;
44137;SDS011;29800;55.942;37.314;2024-03-08T09:08:03;11.70;;;5.90;;
44137;SDS011;29800;55.942;37.314;2024-03-08T09:10:30;11.32;;;5.90;;
44137;SDS011;29800;55.942;37.314;2024-03-08T09:12:56;10.18;;;5.38;;
44137;SDS011;29800;55.942;37.314;2024-03-08T09:15:22;9.40;;;5.22;;
44137;SDS011;29800;55.942;37.314;2024-03-08T09:17:48;12.65;;;6.45;;
44137;SDS011;29800;55.942;37.314;2024-03-08T09:20:14;14.63;;;7.20;;
44137;SDS011;29800;55.942;37.314;2024-03-08T09:22:44;11.90;;;7.03;;
44137;SDS011;29800;55.942;37.314;2024-03-08T09:25:11;12.70;;;6.53;;
44137;SDS011;29800;55.942;37.314;2024-03-08T09:27:37;11.68;;;6.50;;
44137;SDS011;29800;55.942;37.314;2024-03-08T09:30:05;9.60;;;5.80;;
44137;SDS011;29800;55.942;37.314;2024-03-08T09:32:32;17.02;;;7.63;;
44137;SDS011;29800;55.942;37.314;2024-03-08T09:34:59;15.20;;;7.10;;
44137;SDS011;29800;55.942;37.314;2024-03-08T09:37:29;14.50;;;7.05;;
44137;SDS011;29800;55.942;37.314;2024-03-08T09:39:56;14.60;;;7.50;;
44137;SDS011;29800;55.942;37.314;2024-03-08T09:42:24;12.68;;;6.90;;
44137;SDS011;29800;55.942;37.314;2024-03-08T09:44:51;13.55;;;6.97;;
44137;SDS011;29800;55.942;37.314;2024-03-08T09:47:17;12.48;;;6.72;;
44137;SDS011;29800;55.942;37.314;2024-03-08T09:49:43;10.00;;;6.13;;
44137;SDS011;29800;55.942;37.314;2024-03-08T09:52:10;12.75;;;6.40;;
44137;SDS011;29800;55.942;37.314;2024-03-08T09:54:38;15.00;;;7.15;;
44137;SDS011;29800;55.942;37.314;2024-03-08T09:57:05;13.40;;;7.20;;
44137;SDS011;29800;55.942;37.314;2024-03-08T09:59:33;12.52;;;7.03;;
44137;SDS011;29800;55.942;37.314;2024-03-08T10:02:02;12.70;;;6.80;;
44137;SDS011;29800;55.942;37.314;2024-03-08T10:04:30;15.65;;;6.82;;
44137;SDS011;29800;55.942;37.314;2024-03-08T10:06:57;13.05;;;7.07;;
44137;SDS011;29800;55.942;37.314;2024-03-08T10:09:25;14.02;;;7.88;;
44137;SDS011;29800;55.942;37.314;2024-03-08T10:11:58;12.05;;;6.97;;
44137;SDS011;29800;55.942;37.314;2024-03-08T10:14:26;12.50;;;6.50;;
44137;SDS011;29800;55.942;37.314;2024-03-08T10:16:53;11.98;;;6.13;;
44137;SDS011;29800;55.942;37.314;2024-03-08T10:19:20;14.93;;;6.97;;
44137;SDS011;29800;55.942;37.314;2024-03-08T10:21:49;11.50;;;7.10;;
44137;SDS011;29800;55.942;37.314;2024-03-08T10:24:18;14.75;;;7.25;;
44137;SDS011;29800;55.942;37.314;2024-03-08T10:26:44;13.77;;;7.35;;
44137;SDS011;29800;55.942;37.314;2024-03-08T10:29:12;15.90;;;7.70;;
44137;SDS011;29800;55.942;37.314;2024-03-08T10:31:45;14.70;;;7.22;;
44137;SDS011;29800;55.942;37.314;2024-03-08T10:34:14;10.98;;;6.57;;
44137;SDS011;29800;55.942;37.314;2024-03-08T10:36:41;12.57;;;6.55;;
44137;SDS011;29800;55.942;37.314;2024-03-08T10:39:14;10.90;;;6.40;;
44137;SDS011;29800;55.942;37.314;2024-03-08T10:41:58;11.50;;;6.60;;
44137;SDS011;29800;55.942;37.314;2024-03-08T10:49:30;12.75;;;6.32;;
44137;SDS011;29800;55.942;37.314;2024-03-08T10:52:02;14.00;;;6.63;;
44137;SDS011;29800;55.942;37.314;2024-03-08T10:54:31;13.98;;;6.70;;
44137;SDS011;29800;55.942;37.314;2024-03-08T10:57:01;11.95;;;6.93;;
44137;SDS011;29800;55.942;37.314;2024-03-08T10:59:29;14.43;;;7.30;;
44137;SDS011;29800;55.942;37.314;2024-03-08T11:01:56;10.45;;;6.88;;
44137;SDS011;29800;55.942;37.314;2024-03-08T11:04:22;16.08;;;7.32;;
44137;SDS011;29800;55.942;37.314;2024-03-08T11:06:50;17.00;;;9.57;;
44137;SDS011;29800;55.942;37.314;2024-03-08T11:09:37;14.82;;;7.90;;
44137;SDS011;29800;55.942;37.314;2024-03-08T11:15:11;12.07;;;6.65;;
44137;SDS011;29800;55.942;37.314;2024-03-08T11:20:14;13.27;;;7.43;;
44137;SDS011;29800;55.942;37.314;2024-03-08T11:22:50;14.32;;;8.02;;
44137;SDS011;29800;55.942;37.314;2024-03-08T11:25:39;11.68;;;6.47;;
44137;SDS011;29800;55.942;37.314;2024-03-08T11:28:08;9.50;;;6.05;;
44137;SDS011;29800;55.942;37.314;2024-03-08T11:33:28;9.90;;;5.30;;
44137;SDS011;29800;55.942;37.314;2024-03-08T11:36:08;10.40;;;5.70;;
44137;SDS011;29800;55.942;37.314;2024-03-08T11:38:45;12.18;;;5.65;;
44137;SDS011;29800;55.942;37.314;2024-03-08T11:41:19;12.50;;;6.18;;
44137;SDS011;29800;55.942;37.314;2024-03-08T11:43:47;13.35;;;5.82;;
44137;SDS011;29800;55.942;37.314;2024-03-08T11:46:15;12.52;;;6.47;;
44137;SDS011;29800;55.942;37.314;2024-03-08T11:48:42;9.93;;;5.55;;
44137;SDS011;29800;55.942;37.314;2024-03-08T11:51:13;12.68;;;5.97;;
44137;SDS011;29800;55.942;37.314;2024-03-08T11:53:41;11.93;;;6.80;;
44137;SDS011;29800;55.942;37.314;2024-03-08T11:56:11;9.85;;;5.78;;
44137;SDS011;29800;55.942;37.314;2024-03-08T11:58:38;9.48;;;5.63;;
44137;SDS011;29800;55.942;37.314;2024-03-08T12:01:06;9.48;;;5.25;;
44137;SDS011;29800;55.942;37.314;2024-03-08T12:03:41;13.68;;;6.00;;
44137;SDS011;29800;55.942;37.314;2024-03-08T12:06:12;10.32;;;5.40;;
44137;SDS011;29800;55.942;37.314;2024-03-08T12:08:41;11.93;;;6.00;;
44137;SDS011;29800;55.942;37.314;2024-03-08T12:11:09;10.18;;;5.25;;
44137;SDS011;29800;55.942;37.314;2024-03-08T12:13:38;10.68;;;5.45;;
44137;SDS011;29800;55.942;37.314;2024-03-08T12:16:05;9.68;;;5.63;;
44137;SDS011;29800;55.942;37.314;2024-03-08T12:18:36;8.30;;;5.05;;
44137;SDS011;29800;55.942;37.314;2024-03-08T12:21:07;10.32;;;6.25;;
44137;SDS011;29800;55.942;37.314;2024-03-08T12:23:36;10.45;;;5.10;;
44137;SDS011;29800;55.942;37.314;2024-03-08T12:28:49;12.30;;;6.20;;
44137;SDS011;29800;55.942;37.314;2024-03-08T12:31:16;9.23;;;5.35;;
44137;SDS011;29800;55.942;37.314;2024-03-08T12:33:53;10.07;;;5.28;;
44137;SDS011;29800;55.942;37.314;2024-03-08T12:36:22;9.05;;;4.90;;
44137;SDS011;29800;55.942;37.314;2024-03-08T12:38:48;10.48;;;5.55;;
44137;SDS011;29800;55.942;37.314;2024-03-08T12:41:15;10.50;;;5.20;;
44137;SDS011;29800;55.942;37.314;2024-03-08T12:43:43;9.57;;;5.40;;
44137;SDS011;29800;55.942;37.314;2024-03-08T12:46:15;9.25;;;5.50;;
44137;SDS011;29800;55.942;37.314;2024-03-08T12:48:42;8.73;;;4.70;;
44137;SDS011;29800;55.942;37.314;2024-03-08T12:51:16;9.00;;;5.07;;
44137;SDS011;29800;55.942;37.314;2024-03-08T12:53:44;9.73;;;4.85;;
44137;SDS011;29800;55.942;37.314;2024-03-08T12:56:19;10.82;;;5.72;;
44137;SDS011;29800;55.942;37.314;2024-03-08T12:58:54;8.63;;;5.55;;
44137;SDS011;29800;55.942;37.314;2024-03-08T13:01:22;8.50;;;4.75;;
44137;SDS011;29800;55.942;37.314;2024-03-08T13:03:48;11.45;;;6.72;;
44137;SDS011;29800;55.942;37.314;2024-03-08T13:06:15;8.93;;;4.65;;
44137;SDS011;29800;55.942;37.314;2024-03-08T13:08:43;9.60;;;4.60;;
44137;SDS011;29800;55.942;37.314;2024-03-08T13:11:10;9.02;;;4.70;;
44137;SDS011;29800;55.942;37.314;2024-03-08T13:13:43;8.68;;;4.22;;
44137;SDS011;29800;55.942;37.314;2024-03-08T13:16:10;9.35;;;4.38;;
44137;SDS011;29800;55.942;37.314;2024-03-08T13:18:41;8.85;;;4.53;;
44137;SDS011;29800;55.942;37.314;2024-03-08T13:21:07;7.38;;;4.57;;
44137;SDS011;29800;55.942;37.314;2024-03-08T13:23:35;9.05;;;4.57;;
44137;SDS011;29800;55.942;37.314;2024-03-08T13:26:06;9.45;;;4.80;;
44137;SDS011;29800;55.942;37.314;2024-03-08T13:28:34;9.25;;;4.75;;
44137;SDS011;29800;55.942;37.314;2024-03-08T13:31:04;9.82;;;4.80;;
44137;SDS011;29800;55.942;37.314;2024-03-08T13:33:36;8.85;;;5.10;;
44137;SDS011;29800;55.942;37.314;2024-03-08T13:36:05;9.43;;;4.93;;
44137;SDS011;29800;55.942;37.314;2024-03-08T13:38:35;9.32;;;4.55;;
44137;SDS011;29800;55.942;37.314;2024-03-08T13:41:03;8.52;;;4.40;;
44137;SDS011;29800;55.942;37.314;2024-03-08T13:43:35;9.95;;;5.20;;
44137;SDS011;29800;55.942;37.314;2024-03-08T13:46:03;7.95;;;4.22;;
44137;SDS011;29800;55.942;37.314;2024-03-08T13:48:31;8.30;;;4.18;;
44137;SDS011;29800;55.942;37.314;2024-03-08T13:50:57;7.97;;;4.38;;
44137;SDS011;29800;55.942;37.314;2024-03-08T13:53:27;7.80;;;4.28;;
44137;SDS011;29800;55.942;37.314;2024-03-08T13:55:53;8.48;;;4.47;;
44137;SDS011;29800;55.942;37.314;2024-03-08T13:58:19;10.90;;;4.57;;
44137;SDS011;29800;55.942;37.314;2024-03-08T14:00:46;7.03;;;4.38;;
44137;SDS011;29800;55.942;37.314;2024-03-08T14:03:13;6.20;;;3.70;;
44137;SDS011;29800;55.942;37.314;2024-03-08T14:05:40;6.97;;;3.92;;
44137;SDS011;29800;55.942;37.314;2024-03-08T14:08:07;7.65;;;3.75;;
44137;SDS011;29800;55.942;37.314;2024-03-08T14:10:34;7.00;;;3.53;;
44137;SDS011;29800;55.942;37.314;2024-03-08T14:13:03;6.93;;;4.07;;
44137;SDS011;29800;55.942;37.314;2024-03-08T14:15:33;7.15;;;4.05;;
44137;SDS011;29800;55.942;37.314;2024-03-08T14:18:00;6.88;;;4.10;;
44137;SDS011;29800;55.942;37.314;2024-03-08T14:20:32;6.47;;;3.50;;
44137;SDS011;29800;55.942;37.314;2024-03-08T14:22:58;7.40;;;4.05;;
44137;SDS011;29800;55.942;37.314;2024-03-08T14:25:24;7.35;;;3.90;;
44137;SDS011;29800;55.942;37.314;2024-03-08T14:27:51;8.80;;;4.13;;
44137;SDS011;29800;55.942;37.314;2024-03-08T14:30:19;7.70;;;4.05;;
44137;SDS011;29800;55.942;37.314;2024-03-08T14:33:01;8.90;;;4.82;;
44137;SDS011;29800;55.942;37.314;2024-03-08T14:35:28;9.25;;;4.68;;
44137;SDS011;29800;55.942;37.314;2024-03-08T14:37:58;9.63;;;4.60;;
44137;SDS011;29800;55.942;37.314;2024-03-08T14:40:26;7.82;;;3.97;;
44137;SDS011;29800;55.942;37.314;2024-03-08T14:42:52;7.90;;;4.35;;
44137;SDS011;29800;55.942;37.314;2024-03-08T14:45:19;7.80;;;4.35;;
44137;SDS011;29800;55.942;37.314;2024-03-08T14:47:48;8.38;;;4.43;;
44137;SDS011;29800;55.942;37.314;2024-03-08T14:50:16;8.18;;;4.25;;
44137;SDS011;29800;55.942;37.314;2024-03-08T14:52:43;7.40;;;3.78;;